Latest Weather Observations for St Helens

IDT60801

Issued at 5:05 pm EDT Thursday 23 October 2014 (issued every 30 minutes, with the page automatically refreshed every 10 minutes)

About weather observations | Map of weather stations | Latest weather observations for TAS | Other Formats
Station Details ID: 092120 Name: ST HELENS AERODROME Lat: -41.34 Lon: 148.28 Height: 48.0 m
Data from the previous 72 hours. | See also: Recent months at St Helens
Date/Time
EDT
Temp
°C
App
Temp
°C
Dew
Point
Rel
Hum
%
Delta-T
°C
Wind Press
QNH
hPa
Press
MSL
hPa
Rain
since 9 am
mm
Dir
 
Spd
km/h
Gust
km/h
Spd
kts
Gust
kts
23/05:00pm 13.8 9.6 5.9 59 3.7 SE 17 32 9 17 1024.9 - 0.0
23/04:30pm 14.0 9.6 6.4 60 3.6 SSE 19 37 10 20 1024.8 - 0.0
23/04:00pm 14.0 9.4 6.4 60 3.7 S 20 32 11 17 1024.7 - 0.0
23/03:30pm 15.2 10.8 6.7 57 4.2 S 19 35 10 19 1024.7 - 0.0
23/03:00pm 15.0 11.4 6.8 58 4.0 SSE 15 35 8 19 1024.8 1024.8 0.0
23/02:30pm 15.7 10.7 6.4 54 4.5 S 22 41 12 22 1024.9 - 0.0
23/02:00pm 14.1 8.9 5.5 56 4.1 S 22 41 12 22 1025.0 - 0.0
23/01:30pm 15.7 11.0 6.2 53 4.6 S 20 46 11 25 1025.1 - 0.0
23/01:00pm 15.1 10.8 5.3 52 4.6 SSE 17 37 9 20 1024.9 - 0.0
23/12:30pm 15.7 11.0 6.2 53 4.6 SSE 20 39 11 21 1024.8 - 0.0
23/12:00pm 14.7 9.5 5.5 54 4.3 SSE 22 48 12 26 1024.8 1024.8 0.0
23/11:30am 15.2 9.9 5.1 51 4.8 S 22 52 12 28 1024.7 - 0.0
23/11:00am 15.4 10.3 5.9 53 4.6 S 22 41 12 22 1024.6 - 0.0
23/10:46am 14.6 8.1 4.9 52 4.5 S 28 50 15 27 1024.8 - 0.0
23/10:30am 14.6 9.4 5.4 54 4.4 S 22 44 12 24 1024.7 - 0.0
23/10:00am 14.1 8.2 5.7 57 4.0 S 26 44 14 24 1024.6 - 0.0
23/09:46am 13.5 7.2 5.9 60 3.6 S 28 48 15 26 1024.3 - 0.0
23/09:30am 13.4 7.5 5.6 59 3.7 S 26 46 14 25 1024.2 - 0.0
23/09:00am 13.2 7.6 5.4 59 3.6 S 24 46 13 25 1023.9 1023.9 0.0
23/08:36am 12.8 6.5 5.7 62 3.3 S 28 54 15 29 1023.8 - 0.0
23/08:30am 12.9 7.4 5.8 62 3.3 S 24 46 13 25 1023.8 - 0.0
23/08:00am 12.2 6.6 5.6 64 3.1 S 24 44 13 24 1023.3 - 0.0
23/07:46am 12.4 6.3 6.7 68 2.7 S 28 50 15 27 1023.0 - 0.0
23/07:30am 12.4 7.6 7.3 71 2.5 S 22 43 12 23 1022.6 - 0.0
23/07:02am 12.0 5.9 6.7 70 2.5 S 28 50 15 27 1022.0 - 0.0
23/07:00am 12.0 6.4 7.1 72 2.4 S 26 50 14 27 1022.1 - 0.0
23/06:30am 11.8 6.0 8.1 78 1.8 S 28 59 15 32 1021.7 - 0.0
23/06:01am 11.9 6.1 8.0 77 1.9 S 28 50 15 27 1021.3 - 0.0
23/06:00am 11.9 6.5 8.0 77 1.9 S 26 50 14 27 1021.3 1021.3 0.0
23/05:30am 11.8 5.6 9.4 85 1.2 SSE 32 54 17 29 1020.8 - 0.0
23/05:00am 12.4 6.8 10.3 87 1.1 S 30 54 16 29 1020.1 - 0.0
23/04:56am 12.3 7.1 10.2 87 1.1 SSE 28 46 15 25 1020.1 - 0.0
23/04:30am 12.8 8.9 10.9 88 1.0 SSE 22 43 12 23 1019.8 - 0.0
23/04:00am 13.3 9.2 11.4 88 1.0 SSE 24 41 13 22 1019.5 - 0.0
23/03:30am 13.4 9.2 11.1 86 1.2 SSE 24 41 13 22 1019.1 - 0.0
23/03:00am 13.4 10.1 11.5 88 1.0 SSE 20 43 11 23 1019.2 1019.2 0.0
23/02:30am 13.3 10.3 12.4 94 0.5 SSE 20 37 11 20 1018.9 - 0.0
23/02:00am 13.4 10.3 12.1 92 0.7 SSE 20 37 11 20 1018.9 - 0.0
23/01:30am 13.8 10.2 11.8 88 1.1 S 22 41 12 22 1018.6 - 0.0
23/01:00am 13.5 10.5 12.1 91 0.8 SSE 19 33 10 18 1018.5 - 0.0
23/12:30am 13.4 10.3 12.1 92 0.7 S 20 43 11 23 1018.2 - 0.0
23/12:00am 13.9 10.7 11.8 87 1.1 S 20 41 11 22 1017.8 1017.8 0.0
 
Date/Time
EDT
Temp
°C
App
Temp
°C
Dew
Point
Rel
Hum
%
Delta-T
°C
Wind Press
QNH
hPa
Press
MSL
hPa
Rain
since 9 am
mm
Dir
 
Spd
km/h
Gust
km/h
Spd
kts
Gust
kts
22/11:30pm 14.5 10.4 11.6 83 1.6 S 24 43 13 23 1017.1 - 0.0
22/11:05pm 15.4 10.5 11.4 77 2.2 S 28 46 15 25 1016.5 - 0.0
22/11:00pm 16.5 14.2 11.6 73 2.7 SE 15 32 8 17 1016.5 - 0.0
22/10:30pm 17.3 15.1 12.0 71 2.9 SSE 15 30 8 16 1015.9 - 0.0
22/10:00pm 18.6 18.5 10.7 60 4.3 NW 2 7 1 4 1014.7 - 0.0
22/09:30pm 19.1 18.1 10.4 57 4.7 WNW 6 15 3 8 1014.3 - 0.0
22/09:00pm 18.8 16.3 11.1 61 4.2 NNE 15 20 8 11 1014.1 1014.0 0.0
22/08:30pm 19.6 18.5 10.6 56 4.9 NNE 7 11 4 6 1013.9 - 0.0
22/08:00pm 21.2 20.0 10.4 50 5.9 N 7 13 4 7 1013.7 - 0.0
22/07:30pm 21.7 19.5 10.8 50 6.0 WNW 13 20 7 11 1014.1 - 0.0
22/07:00pm 21.7 20.3 10.8 50 6.0 WNW 9 22 5 12 1013.9 - 0.0
22/06:30pm 22.6 20.8 11.0 48 6.4 WNW 11 22 6 12 1013.6 - 0.0
22/06:00pm 23.9 21.4 10.9 44 7.3 NW 15 24 8 13 1013.6 1013.5 0.0
22/05:30pm 24.7 22.5 10.9 42 7.7 NW 13 32 7 17 1013.5 - 0.0
22/05:00pm 22.4 19.8 12.1 52 5.8 N 17 26 9 14 1013.6 - 0.0
22/04:30pm 20.9 17.8 12.3 58 4.8 NE 20 26 11 14 1013.8 - 0.0
22/04:00pm 20.2 15.9 11.9 59 4.6 NNE 26 35 14 19 1014.1 - 0.0
22/03:30pm 19.7 16.3 12.5 63 4.0 NNE 22 32 12 17 1014.3 - 0.0
22/03:00pm 19.5 15.1 11.8 61 4.3 NNE 26 35 14 19 1014.9 1014.9 0.0
22/02:30pm 18.4 14.6 12.4 68 3.3 NNE 24 33 13 18 1015.5 - 0.0
22/02:00pm 18.7 15.4 12.7 68 3.4 NNE 22 30 12 16 1016.3 - 0.0
22/01:30pm 17.4 13.5 12.1 71 2.9 NNE 24 33 13 18 1016.9 - 0.0
22/01:00pm 17.6 13.5 11.6 68 3.3 NNE 24 32 13 17 1017.7 - 0.0
22/12:30pm 18.2 14.3 12.0 67 3.4 NNE 24 32 13 17 1018.4 - 0.0
22/12:00pm 17.6 14.5 12.3 71 2.9 NNE 20 32 11 17 1019.4 1019.4 0.0
22/11:30am 18.3 15.5 12.5 69 3.2 NNE 19 26 10 14 1020.1 - 0.0
22/11:00am 17.1 14.1 11.8 71 2.9 N 19 30 10 16 1020.8 - 0.0
22/10:30am 16.3 13.1 11.2 72 2.7 NNE 19 30 10 16 1021.3 - 0.0
22/10:00am 15.9 12.7 11.1 73 2.6 N 19 30 10 16 1021.8 - 0.0
22/09:30am 15.9 12.6 10.9 72 2.7 N 19 33 10 18 1022.0 - 0.0
22/09:00am 15.4 12.6 11.2 76 2.2 N 17 28 9 15 1022.1 1022.1 0.0
22/08:30am 14.6 13.3 10.0 74 2.4 NW 7 17 4 9 1022.6 - 0.0
22/08:00am 14.0 12.5 9.2 73 2.4 NNW 7 11 4 6 1022.7 - 0.0
22/07:30am 13.5 12.3 9.4 76 2.1 NW 6 11 3 6 1023.1 - 0.0
22/07:00am 13.5 12.1 8.8 73 2.4 WNW 6 13 3 7 1023.4 - 0.0
22/06:30am 13.2 11.6 8.7 74 2.3 NW 7 11 4 6 1023.7 - 0.0
22/06:00am 13.2 11.7 8.5 73 2.3 N 6 9 3 5 1023.8 1023.8 0.0
22/05:30am 13.3 11.6 8.2 71 2.5 NNW 7 11 4 6 1024.0 - 0.0
22/05:00am 13.3 11.5 8.0 70 2.6 NNW 7 13 4 7 1024.3 - 0.0
22/04:30am 13.5 11.6 7.7 68 2.9 N 7 17 4 9 1024.7 - 0.0
22/04:00am 13.5 10.8 7.5 67 2.9 NNW 11 20 6 11 1025.0 - 0.0
22/03:30am 13.7 10.3 7.7 67 3.0 N 15 22 8 12 1025.6 - 0.0
22/03:00am 13.3 10.7 7.7 69 2.7 NW 11 22 6 12 1026.0 1026.0 0.0
22/02:30am 13.3 11.1 7.7 69 2.8 NNW 9 20 5 11 1026.5 - 0.0
22/02:00am 13.3 11.5 8.0 70 2.6 NNW 7 15 4 8 1026.6 - 0.0
22/01:30am 13.5 11.3 7.9 69 2.8 N 9 17 5 9 1027.1 - 0.0
22/01:00am 13.6 11.4 8.0 69 2.8 N 9 15 5 8 1027.9 - 0.0
22/12:30am 13.6 11.1 8.0 69 2.8 N 11 20 6 11 1028.4 - 0.0
22/12:00am 13.5 11.5 7.3 66 3.0 NNW 7 13 4 7 1028.9 1028.9 0.0
 
Date/Time
EDT
Temp
°C
App
Temp
°C
Dew
Point
Rel
Hum
%
Delta-T
°C
Wind Press
QNH
hPa
Press
MSL
hPa
Rain
since 9 am
mm
Dir
 
Spd
km/h
Gust
km/h
Spd
kts
Gust
kts
21/11:30pm 13.8 10.8 7.6 66 3.1 N 13 20 7 11 1029.3 - 0.0
21/11:00pm 13.6 10.5 7.4 66 3.0 N 13 20 7 11 1029.6 - 0.0
21/10:30pm 13.8 10.2 6.7 62 3.4 N 15 26 8 14 1030.0 - 0.0
21/10:00pm 13.8 10.7 7.3 65 3.2 N 13 17 7 9 1030.2 - 0.0
21/09:30pm 13.6 11.3 7.4 66 3.0 NNE 9 15 5 8 1030.4 - 0.0
21/09:00pm 13.6 10.7 6.7 63 3.3 NNE 11 17 6 9 1030.3 1030.2 0.0
21/08:30pm 13.5 10.2 6.4 62 3.4 NNE 13 19 7 10 1030.4 - 0.0
21/08:00pm 13.6 9.9 6.2 61 3.5 N 15 20 8 11 1030.6 - 0.0
21/07:30pm 13.7 10.4 6.3 61 3.5 N 13 19 7 10 1030.4 - 0.0
21/07:00pm 14.1 10.5 6.7 61 3.6 N 15 20 8 11 1030.3 - 0.0
21/06:30pm 14.3 10.5 7.6 64 3.3 N 17 22 9 12 1030.3 - 0.0
21/06:00pm 14.6 10.2 7.4 62 3.5 NNE 20 35 11 19 1030.2 1030.1 0.0
21/05:30pm 15.5 11.2 8.0 61 3.8 NE 20 30 11 16 1030.6 - 0.0
21/05:00pm 15.6 10.9 7.9 60 3.9 NE 22 28 12 15 1030.7 - 0.0
21/04:30pm 15.2 10.7 7.0 58 4.0 NE 20 30 11 16 1031.0 - 0.0
21/04:00pm 15.9 10.7 7.1 56 4.4 NE 24 33 13 18 1031.4 - 0.0
21/03:30pm 16.0 10.7 6.7 54 4.6 NE 24 35 13 19 1031.5 - 0.0
21/03:00pm 16.0 11.3 6.2 52 4.7 NE 20 30 11 16 1031.9 1031.9 0.0
21/02:30pm 16.2 11.1 6.1 51 4.9 NE 22 32 12 17 1032.3 - 0.0
21/02:00pm 15.8 10.9 5.1 49 5.1 NNE 20 30 11 16 1032.7 - 0.0
21/01:30pm 16.0 11.3 5.9 51 4.9 NNE 20 32 11 17 1033.0 - 0.0
21/01:00pm 15.3 10.0 4.9 50 4.9 NE 22 28 12 15 1033.3 - 0.0
21/12:30pm 15.6 11.3 5.2 50 4.9 NNE 17 26 9 14 1033.6 - 0.0
21/12:00pm 15.3 11.1 5.5 52 4.6 NNE 17 22 9 12 1033.9 1033.9 0.0
21/11:30am 14.6 10.3 5.1 53 4.5 NE 17 22 9 12 1034.2 - 0.0
21/11:00am 14.2 9.1 4.2 51 4.6 NE 20 28 11 15 1034.6 - 0.0
21/10:30am 13.8 10.6 4.9 55 4.1 ENE 11 17 6 9 1034.9 - 0.0
21/10:00am 13.2 10.7 4.9 57 3.8 E 7 13 4 7 1035.1 - 0.0
21/09:30am 12.4 10.3 6.0 65 3.0 N 6 9 3 5 1035.1 - 0.0
21/09:00am 12.0 10.3 6.1 67 2.7 NNW 4 9 2 5 1034.9 1034.9 0.0
21/08:30am 11.7 10.8 6.0 68 2.7 CALM 0 6 0 3 1034.7 - 0.0
21/08:00am 10.7 10.1 7.6 81 1.5 CALM 0 0 0 0 1034.6 - 0.0
21/07:30am 10.0 9.1 7.6 85 1.2 WNW 2 7 1 4 1034.4 - 0.0
21/07:00am 9.3 7.6 7.6 89 0.8 NNW 6 9 3 5 1034.1 - 0.0
21/06:30am 8.9 6.9 7.2 89 0.8 NNW 7 9 4 5 1034.0 - 0.0
21/06:00am 8.9 7.0 6.7 86 1.0 WNW 6 9 3 5 1033.7 1033.7 0.0
21/05:30am 9.3 6.8 6.7 84 1.2 NW 9 11 5 6 1033.4 - 0.0
21/05:00am 9.5 7.4 6.6 82 1.4 NNW 7 11 4 6 1033.3 - 0.0
21/04:30am 9.6 7.1 6.5 81 1.4 NNW 9 11 5 6 1033.4 - 0.0
21/04:00am 9.6 7.4 6.1 79 1.6 NW 7 11 4 6 1033.7 - 0.0
21/03:30am 9.6 7.4 6.3 80 1.5 NNW 7 11 4 6 1033.8 - 0.0
21/03:00am 9.6 7.4 6.1 79 1.6 NW 7 11 4 6 1034.1 1034.1 0.0
21/02:30am 9.8 7.6 6.3 79 1.6 NNW 7 11 4 6 1034.0 - 0.0
21/02:00am 9.9 8.4 6.6 80 1.5 NW 4 9 2 5 1034.2 - 0.0
21/01:30am 10.1 9.3 6.6 79 1.6 CALM 0 6 0 3 1034.5 - 0.0
21/01:00am 10.4 8.8 6.2 75 2.0 WSW 4 9 2 5 1034.9 - 0.0
21/12:30am 10.6 9.4 4.7 67 2.7 CALM 0 0 0 0 1035.2 - 0.0
21/12:00am 10.5 9.4 5.1 69 2.4 CALM 0 0 0 0 1035.5 1035.5 0.0
 
Date/Time
EDT
Temp
°C
App
Temp
°C
Dew
Point
Rel
Hum
%
Delta-T
°C
Wind Press
QNH
hPa
Press
MSL
hPa
Rain
since 9 am
mm
Dir
 
Spd
km/h
Gust
km/h
Spd
kts
Gust
kts
20/11:30pm 10.5 8.5 4.4 66 2.7 S 4 7 2 4 1035.6 - 0.0
20/11:00pm 10.5 8.1 4.2 65 2.8 S 6 9 3 5 1035.7 - 0.0
20/10:30pm 10.9 8.5 4.1 63 3.0 E 6 11 3 6 1035.7 - 0.0
20/10:00pm 10.6 8.2 5.2 69 2.5 E 7 11 4 6 1035.7 - 0.0
20/09:30pm 10.6 9.3 4.1 64 2.9 CALM 0 0 0 0 1035.7 - 0.0
20/09:00pm 10.4 9.1 3.9 64 2.8 CALM 0 6 0 3 1035.5 1035.5 0.0
20/08:30pm 10.0 7.8 3.1 62 3.0 SE 4 9 2 5 1035.2 - 0.0
20/08:00pm 9.9 8.5 3.4 64 2.8 CALM 0 2 0 1 1034.8 - 0.0
20/07:30pm 10.2 8.8 3.5 63 2.9 CALM 0 0 0 0 1034.5 - 0.0
20/07:00pm 10.7 9.3 3.5 61 3.2 CALM 0 6 0 3 1034.3 - 0.0
20/06:30pm 11.4 8.2 2.9 56 3.7 ESE 9 17 5 9 1034.1 - 0.0
20/06:00pm 11.8 8.2 3.1 55 3.8 ESE 11 20 6 11 1034.0 1034.0 0.0
20/05:30pm 12.2 8.3 3.4 55 3.9 E 13 20 7 11 1033.9 - 0.0

Other Formats:

Comma delimited format used in spreadsheet applications
http://www.bom.gov.au/fwo/IDT60801/IDT60801.95981.axf

JavaScript Object Notation format (JSON) in row-major order
http://www.bom.gov.au/fwo/IDT60801/IDT60801.95981.json